Time;durP1;ratioP1;P1;durP2;ratioP2;P2;SDS_P1;SDS_P2;PMS_P1;PMS_P2;Temp;Humidity;BMP_temperature;BMP_pressure;BME280_temperature;BME280_humidity;BME280_pressure;Samples;Min_cycle;Max_cycle;Signal;HPM_P1;HPM_P2
2021/04/09 00:01:35;;;;;;;22.53;11.60;;;;;;;2.25;72.83;100665.84;115263;1200;103137;-83
2021/04/09 00:04:02;;;;;;;22.30;11.63;;;;;;;2.22;72.98;100662.39;115438;1199;103284;-81
2021/04/09 00:06:30;;;;;;;21.77;12.17;;;;;;;2.17;72.94;100667.50;115441;1198;103095;-81
2021/04/09 00:08:57;;;;;;;25.00;12.80;;;;;;;2.13;72.69;100664.02;115307;1199;103027;-83
2021/04/09 00:11:25;;;;;;;24.53;11.70;;;;;;;2.12;72.86;100674.30;115359;1199;103127;-83
2021/04/09 00:13:52;;;;;;;23.00;12.77;;;;;;;2.09;73.27;100671.70;115342;1199;103015;-81
2021/04/09 00:16:19;;;;;;;24.33;12.57;;;;;;;2.05;72.72;100681.11;115360;1199;103134;-81
2021/04/09 00:18:46;;;;;;;26.80;14.25;;;;;;;2.02;73.28;100673.38;115404;1198;103073;-83
2021/04/09 00:21:13;;;;;;;23.50;13.20;;;;;;;2.00;72.96;100684.50;115306;1199;103718;-83
2021/04/09 00:23:41;;;;;;;27.20;15.20;;;;;;;1.97;73.28;100687.88;115602;1199;101881;-83
2021/04/09 00:26:08;;;;;;;26.10;14.40;;;;;;;1.98;72.90;100681.05;115574;1199;103047;-83
2021/04/09 00:28:35;;;;;;;31.60;15.05;;;;;;;1.97;72.90;100684.44;115528;1200;103050;-82
2021/04/09 00:31:04;;;;;;;26.37;15.53;;;;;;;1.93;72.98;100682.70;115412;1199;103057;-82
2021/04/09 00:33:31;;;;;;;26.23;15.77;;;;;;;1.92;73.04;100686.12;115534;1199;103101;-82
2021/04/09 00:35:58;;;;;;;27.33;15.87;;;;;;;1.90;72.76;100690.39;115354;1199;103134;-83
2021/04/09 00:38:26;;;;;;;27.33;15.50;;;;;;;1.87;72.96;100693.80;115339;1198;103012;-83
2021/04/09 00:40:54;;;;;;;28.17;15.83;;;;;;;1.84;73.03;100691.20;115393;1199;102969;-82
2021/04/09 00:43:21;;;;;;;27.70;15.73;;;;;;;1.81;72.97;100689.46;115361;1200;103091;-83
2021/04/09 00:45:48;;;;;;;35.30;16.90;;;;;;;1.77;72.49;100687.68;115353;1199;101955;-83
2021/04/09 00:48:16;;;;;;;33.90;16.37;;;;;;;1.78;72.79;100693.69;115329;1199;103114;-82
2021/04/09 00:50:43;;;;;;;29.40;15.90;;;;;;;1.75;72.98;100694.52;115361;1200;103076;-81
2021/04/09 00:53:15;;;;;;;27.03;16.10;;;;;;;1.73;72.42;100696.22;115333;1198;103003;-82
2021/04/09 00:55:43;;;;;;;29.20;15.97;;;;;;;1.72;72.99;100702.20;115371;1199;103072;-82
2021/04/09 00:58:11;;;;;;;29.10;16.47;;;;;;;1.70;72.44;100695.33;115543;1199;102970;-84
2021/04/09 01:00:38;;;;;;;34.33;17.93;;;;;;;1.66;72.65;100691.86;115338;1200;102390;-83
2021/04/09 01:03:05;;;;;;;28.50;16.50;;;;;;;1.65;72.26;100697.86;115325;1199;103038;-83
2021/04/09 01:05:33;;;;;;;29.63;17.10;;;;;;;1.63;71.97;100699.55;115287;1197;103002;-83
2021/04/09 01:08:02;;;;;;;31.73;16.13;;;;;;;1.62;72.59;100695.25;115312;1200;103124;-83
2021/04/09 01:10:29;;;;;;;31.83;16.73;;;;;;;1.60;72.09;100696.91;115367;1200;101306;-83
2021/04/09 01:12:57;;;;;;;32.70;16.43;;;;;;;1.59;72.05;100702.91;115292;1198;103011;-83
2021/04/09 01:15:24;;;;;;;34.87;16.40;;;;;;;1.58;71.84;100701.18;115339;1200;103149;-83
2021/04/09 01:18:13;;;;;;;30.43;15.17;;;;;;;1.57;71.72;100701.16;115602;1199;103134;-82
2021/04/09 01:20:46;;;;;;;32.20;16.23;;;;;;;1.52;71.65;100698.55;115556;1199;103040;-83
2021/04/09 01:23:52;;;;;;;33.33;16.13;;;;;;;1.50;71.78;100692.53;115582;1200;102799;-83
2021/04/09 01:26:41;;;;;;;31.95;16.15;;;;;;;1.48;71.85;100704.51;115657;1199;103075;-83
2021/04/09 01:29:30;;;;;;;34.33;16.00;;;;;;;1.47;71.35;100703.64;115538;1198;101650;-81
2021/04/09 01:32:00;;;;;;;31.77;16.40;;;;;;;1.47;71.37;100695.08;115670;1200;102808;-82
2021/04/09 01:34:32;;;;;;;32.03;15.70;;;;;;;1.46;71.17;100695.92;115682;1199;103078;-82
2021/04/09 01:37:09;;;;;;;31.00;15.90;;;;;;;1.43;70.88;100695.86;115591;1199;103104;-82
2021/04/09 01:39:41;;;;;;;29.27;15.93;;;;;;;1.41;70.91;100695.84;115587;1198;102130;-82
2021/04/09 01:42:12;;;;;;;32.97;16.33;;;;;;;1.40;71.47;100695.83;115511;1200;102820;-82
2021/04/09 01:44:46;;;;;;;31.23;15.17;;;;;;;1.37;71.19;100701.80;115455;1198;103022;-82
2021/04/09 01:47:14;;;;;;;30.13;15.23;;;;;;;1.36;70.80;100699.20;115327;1200;102999;-82
2021/04/09 01:49:43;;;;;;;32.27;16.23;;;;;;;1.35;70.90;100700.05;115367;1199;103075;-82
2021/04/09 01:52:12;;;;;;;32.17;15.97;;;;;;;1.33;71.09;100691.47;115589;1198;103047;-82
2021/04/09 01:54:41;;;;;;;31.10;14.85;;;;;;;1.31;70.92;100690.59;115608;1200;103030;-82
2021/04/09 01:57:10;;;;;;;36.17;15.83;;;;;;;1.29;70.59;100689.70;115524;1198;103127;-82
2021/04/09 01:59:40;;;;;;;29.10;14.20;;;;;;;1.28;70.90;100682.84;115472;1199;102996;-82
2021/04/09 02:02:08;;;;;;;26.57;14.87;;;;;;;1.27;70.88;100683.69;115392;1200;101788;-82
2021/04/09 02:04:37;;;;;;;33.13;15.50;;;;;;;1.25;70.20;100693.06;115364;1198;103005;-82
2021/04/09 02:07:06;;;;;;;30.33;16.13;;;;;;;1.21;70.45;100693.02;115329;1199;102845;-82
2021/04/09 02:09:36;;;;;;;30.00;14.70;;;;;;;1.20;70.61;100688.73;115334;1199;102995;-82
2021/04/09 02:12:04;;;;;;;30.80;14.57;;;;;;;1.18;70.69;100692.98;115678;1198;103082;-82
2021/04/09 02:14:33;;;;;;;26.47;13.73;;;;;;;1.18;70.39;100692.13;115419;1199;103083;-82
2021/04/09 02:17:02;;;;;;;25.60;13.37;;;;;;;1.16;70.50;100689.55;115455;1198;103009;-82
2021/04/09 02:19:29;;;;;;;30.87;13.67;;;;;;;1.15;70.20;100684.39;115469;1199;103063;-82
2021/04/09 02:21:59;;;;;;;31.07;14.00;;;;;;;1.14;70.30;100692.94;115403;1199;103049;-82
2021/04/09 02:24:26;;;;;;;26.40;13.77;;;;;;;1.13;70.21;100691.22;115437;1199;103466;-82
2021/04/09 02:26:54;;;;;;;27.50;13.70;;;;;;;1.12;69.76;100692.06;115585;1199;103203;-82
2021/04/09 02:29:22;;;;;;;27.43;13.93;;;;;;;1.10;70.26;100683.47;115407;1199;103159;-82
2021/04/09 02:31:50;;;;;;;26.37;13.67;;;;;;;1.10;70.07;100681.77;115591;1198;103158;-82
2021/04/09 02:34:19;;;;;;;26.73;13.17;;;;;;;1.10;70.05;100686.05;115657;1198;103136;-82
2021/04/09 02:36:47;;;;;;;29.37;13.73;;;;;;;1.10;70.07;100689.47;115355;1199;103162;-82
2021/04/09 02:39:19;;;;;;;28.65;13.70;;;;;;;1.11;70.14;100685.20;115471;1200;103014;-83
2021/04/09 02:41:52;;;;;;;26.27;11.97;;;;;;;1.10;70.15;100688.61;115425;1199;103031;-82
2021/04/09 02:44:20;;;;;;;22.85;12.60;;;;;;;1.07;69.64;100681.70;115468;1199;103187;-82
2021/04/09 02:46:56;;;;;;;24.37;12.23;;;;;;;1.05;69.29;100683.39;115453;1199;103047;-82
2021/04/09 02:49:43;;;;;;;24.73;11.98;;;;;;;1.04;69.38;100686.80;115406;1198;102982;-82
2021/04/09 02:52:20;;;;;;;26.97;12.43;;;;;;;1.03;69.64;100677.38;115407;1199;103043;-82
2021/04/09 02:54:53;;;;;;;22.63;12.50;;;;;;;1.01;69.99;100686.77;115423;1199;103564;-82
2021/04/09 02:57:23;;;;;;;24.17;12.33;;;;;;;1.01;69.88;100683.33;115404;1198;101921;-82
2021/04/09 02:59:53;;;;;;;24.70;12.37;;;;;;;0.98;69.13;100678.16;115438;1199;103053;-83
2021/04/09 03:02:22;;;;;;;22.75;12.25;;;;;;;0.96;69.43;100677.28;115447;1198;103041;-82
2021/04/09 03:04:50;;;;;;;25.80;12.17;;;;;;;0.96;69.74;100677.28;115348;1199;103111;-82
2021/04/09 03:07:18;;;;;;;26.17;11.57;;;;;;;0.95;69.90;100681.55;115340;1199;103120;-82
2021/04/09 03:09:47;;;;;;;24.50;11.65;;;;;;;0.93;69.41;100672.11;115293;1198;103127;-82
2021/04/09 03:12:16;;;;;;;26.27;12.10;;;;;;;0.93;69.22;100687.52;115634;1199;103063;-82
2021/04/09 03:14:46;;;;;;;23.00;11.17;;;;;;;0.90;69.65;100678.93;115340;1199;103434;-82
2021/04/09 03:17:19;;;;;;;22.60;12.03;;;;;;;0.87;69.35;100680.56;115331;1197;103021;-82
2021/04/09 03:19:46;;;;;;;26.60;11.97;;;;;;;0.84;69.76;100683.09;115320;1200;103034;-81
2021/04/09 03:22:13;;;;;;;22.27;13.27;;;;;;;0.80;69.78;100684.77;115328;1199;103140;-81
2021/04/09 03:24:40;;;;;;;24.87;14.10;;;;;;;0.79;69.23;100690.74;115371;1199;103051;-82
2021/04/09 03:27:09;;;;;;;24.33;13.13;;;;;;;0.76;69.19;100689.84;115597;1200;102986;-81
2021/04/09 03:29:36;;;;;;;23.97;13.27;;;;;;;0.73;69.39;100685.53;115346;1199;103066;-81
2021/04/09 03:32:04;;;;;;;20.40;12.70;;;;;;;0.71;69.71;100686.32;115613;1200;103130;-81
2021/04/09 03:34:31;;;;;;;24.20;12.27;;;;;;;0.70;70.00;100682.03;115346;1197;103159;-81
2021/04/09 03:36:59;;;;;;;27.13;14.73;;;;;;;0.68;69.47;100676.02;115545;1199;103139;-81
2021/04/09 03:39:27;;;;;;;27.27;14.80;;;;;;;0.64;69.98;100681.95;115329;1200;102825;-81
2021/04/09 03:41:54;;;;;;;26.10;13.10;;;;;;;0.62;70.00;100678.50;115377;1199;103031;-82
2021/04/09 03:44:21;;;;;;;22.97;12.43;;;;;;;0.58;70.02;100686.16;115326;1200;102999;-82
2021/04/09 03:46:48;;;;;;;24.13;12.50;;;;;;;0.57;70.17;100678.44;115304;1200;103060;-82
2021/04/09 03:49:16;;;;;;;21.33;11.97;;;;;;;0.55;69.72;100685.26;115363;1198;103009;-82
2021/04/09 03:51:43;;;;;;;27.07;12.90;;;;;;;0.54;69.52;100683.53;115287;1198;103202;-82
2021/04/09 03:54:12;;;;;;;24.10;13.25;;;;;;;0.54;69.96;100678.40;115371;1199;102980;-81
2021/04/09 03:56:39;;;;;;;20.67;11.53;;;;;;;0.54;70.25;100675.83;115396;1200;103031;-81
2021/04/09 03:59:06;;;;;;;21.73;12.50;;;;;;;0.52;70.30;100683.48;115321;1200;103085;-81
2021/04/09 04:01:34;;;;;;;26.10;11.47;;;;;;;0.50;70.29;100680.03;115413;1198;102993;-81
2021/04/09 04:04:01;;;;;;;20.47;11.30;;;;;;;0.48;69.88;100679.14;115404;1199;103175;-81
2021/04/09 04:06:28;;;;;;;20.80;11.13;;;;;;;0.48;69.63;100684.28;115424;1198;103107;-82
2021/04/09 04:08:56;;;;;;;22.87;11.70;;;;;;;0.48;69.54;100689.41;115425;1198;103162;-82
2021/04/09 04:11:23;;;;;;;21.50;12.10;;;;;;;0.50;69.81;100686.86;115348;1200;103162;-82
2021/04/09 04:13:50;;;;;;;28.07;11.83;;;;;;;0.51;69.93;100681.75;115352;1199;103494;-82
2021/04/09 04:16:18;;;;;;;21.80;11.67;;;;;;;0.50;70.15;100674.03;115480;1200;103033;-82
2021/04/09 04:18:45;;;;;;;21.38;11.35;;;;;;;0.51;69.58;100681.75;115433;1199;103494;-82
2021/04/09 04:21:14;;;;;;;26.93;12.33;;;;;;;0.59;70.33;100685.31;115520;1199;103159;-82
2021/04/09 04:23:41;;;;;;;23.80;11.85;;;;;;;0.80;70.24;100682.20;115356;1200;103089;-82
2021/04/09 04:26:08;;;;;;;18.90;9.63;;;;;;;1.23;69.57;100679.33;115419;1198;103133;-82
2021/04/09 04:28:36;;;;;;;18.33;8.90;;;;;;;1.69;69.22;100683.31;115293;1199;103005;-82
2021/04/09 04:31:03;;;;;;;19.47;10.37;;;;;;;2.18;68.17;100679.52;115320;1200;103453;-82
2021/04/09 04:33:31;;;;;;;21.73;10.97;;;;;;;2.76;66.86;100674.81;115300;1200;101920;-82
2021/04/09 04:35:58;;;;;;;18.57;9.93;;;;;;;3.39;66.07;100683.70;115346;1199;103091;-82
2021/04/09 04:38:27;;;;;;;18.77;9.53;;;;;;;4.00;65.17;100683.91;115591;1199;103002;-82
2021/04/09 04:40:55;;;;;;;20.25;10.00;;;;;;;4.60;63.64;100686.50;115323;1200;101936;-82
2021/04/09 04:43:22;;;;;;;22.53;10.70;;;;;;;5.32;62.74;100674.27;115380;1199;101504;-82
2021/04/09 04:45:49;;;;;;;18.57;9.13;;;;;;;5.96;61.58;100685.19;115311;1199;103130;-82
2021/04/09 04:48:17;;;;;;;18.35;9.70;;;;;;;6.44;59.18;100677.91;115365;1198;103005;-82
2021/04/09 04:50:44;;;;;;;16.70;9.03;;;;;;;7.03;59.01;100681.69;115405;1199;103079;-82
2021/04/09 04:53:11;;;;;;;18.65;8.95;;;;;;;7.59;57.66;100674.97;115398;1199;103024;-82
2021/04/09 04:55:38;;;;;;;18.23;8.53;;;;;;;8.31;56.65;100674.77;115521;1198;103095;-82
2021/04/09 04:58:05;;;;;;;17.47;8.70;;;;;;;8.77;53.48;100676.61;115353;1199;103325;-83
2021/04/09 05:00:32;;;;;;;15.85;8.28;;;;;;;9.33;53.54;100672.07;115401;1200;103108;-82
2021/04/09 05:03:00;;;;;;;13.83;8.07;;;;;;;9.80;49.60;100672.83;115366;1198;103101;-82
2021/04/09 05:05:27;;;;;;;19.40;9.47;;;;;;;10.29;51.72;100673.45;115306;1199;103076;-82
2021/04/09 05:07:54;;;;;;;17.53;9.15;;;;;;;10.84;49.68;100671.19;115385;1199;103172;-82
2021/04/09 05:10:21;;;;;;;13.90;8.53;;;;;;;11.25;49.53;100667.45;115429;1200;101941;-82
2021/04/09 05:12:48;;;;;;;15.00;8.33;;;;;;;12.05;48.75;100665.98;115342;1199;103085;-82
2021/04/09 05:15:16;;;;;;;12.97;7.77;;;;;;;12.60;47.03;100654.56;115655;1197;103047;-82
2021/04/09 05:17:43;;;;;;;18.55;7.88;;;;;;;13.19;45.43;100649.01;115655;1198;103319;-82
2021/04/09 05:20:11;;;;;;;13.27;8.23;;;;;;;13.71;44.60;100652.30;115356;1198;103130;-83
2021/04/09 05:22:38;;;;;;;12.33;7.93;;;;;;;14.41;44.22;100644.23;115334;1199;103117;-83
2021/04/09 05:25:06;;;;;;;14.60;8.17;;;;;;;15.14;43.87;100644.64;115377;1199;103018;-82
2021/04/09 05:27:35;;;;;;;18.90;8.50;;;;;;;15.58;42.03;100646.09;115692;1197;102973;-82
2021/04/09 05:30:04;;;;;;;11.90;7.67;;;;;;;16.05;40.68;100650.92;115440;1199;103034;-81
2021/04/09 05:32:31;;;;;;;11.97;7.53;;;;;;;16.56;40.09;100639.60;115421;1200;103156;-81
2021/04/09 05:34:59;;;;;;;16.73;9.07;;;;;;;16.76;38.59;100638.62;115463;1199;103261;-81
2021/04/09 05:37:26;;;;;;;13.20;8.40;;;;;;;17.03;37.29;100635.46;115428;1199;103082;-81
2021/04/09 05:39:53;;;;;;;13.07;7.80;;;;;;;17.14;34.51;100638.39;115590;1198;103066;-81
2021/04/09 05:42:20;;;;;;;15.20;8.20;;;;;;;17.01;35.96;100632.06;115443;1198;103143;-81
2021/04/09 05:44:48;;;;;;;13.53;7.50;;;;;;;17.33;32.88;100639.11;115498;1198;103047;-81
2021/04/09 05:47:16;;;;;;;14.27;7.97;;;;;;;17.53;34.58;100630.97;115409;1199;103040;-81
2021/04/09 05:49:43;;;;;;;11.50;7.10;;;;;;;17.74;34.74;100641.30;115404;1199;103145;-82
2021/04/09 05:52:11;;;;;;;14.07;8.47;;;;;;;18.16;33.28;100642.48;115466;1199;103018;-82
2021/04/09 05:54:40;;;;;;;10.90;7.10;;;;;;;18.37;32.90;100643.88;115441;1199;100754;-83
2021/04/09 05:57:08;;;;;;;12.17;7.77;;;;;;;18.77;33.07;100638.91;115405;1198;102996;-81
2021/04/09 05:59:35;;;;;;;15.57;7.40;;;;;;;19.31;33.32;100640.83;115431;1199;103387;-82
2021/04/09 06:02:03;;;;;;;12.80;7.70;;;;;;;19.76;32.43;100630.98;115452;1198;102983;-82
2021/04/09 06:04:30;;;;;;;15.70;8.00;;;;;;;20.33;32.65;100630.77;115426;1198;101913;-83
2021/04/09 06:06:57;;;;;;;13.10;7.73;;;;;;;21.05;31.43;100626.74;115577;1199;103002;-82
2021/04/09 06:09:26;;;;;;;11.40;7.30;;;;;;;21.16;30.32;100630.44;115517;1197;102964;-82
2021/04/09 06:11:53;;;;;;;16.93;8.27;;;;;;;21.65;30.86;100626.02;115426;1199;103552;-82
2021/04/09 06:14:20;;;;;;;11.00;7.07;;;;;;;22.18;28.69;100629.25;115383;1198;103319;-82
2021/04/09 06:16:48;;;;;;;11.97;7.17;;;;;;;22.03;28.34;100625.88;115626;1199;103124;-82
2021/04/09 06:19:15;;;;;;;11.17;6.73;;;;;;;21.88;27.59;100623.50;115484;1200;103124;-82
2021/04/09 06:21:43;;;;;;;12.90;6.97;;;;;;;21.93;27.91;100634.66;115680;1200;103123;-81
2021/04/09 06:24:10;;;;;;;10.20;7.37;;;;;;;21.65;26.70;100626.02;115461;1199;103054;-81
2021/04/09 06:26:37;;;;;;;10.93;7.00;;;;;;;21.92;25.27;100627.65;115535;1199;103024;-81
2021/04/09 06:29:05;;;;;;;11.87;7.23;;;;;;;21.61;23.73;100631.67;115557;1199;103006;-81
2021/04/09 06:31:32;;;;;;;8.10;6.60;;;;;;;21.41;26.94;100617.18;115520;1200;103050;-80
2021/04/09 06:34:00;;;;;;;12.83;7.03;;;;;;;21.77;26.74;100620.80;115441;1198;103025;-81
2021/04/09 06:36:27;;;;;;;10.20;6.33;;;;;;;21.46;26.01;100630.96;115400;1199;103248;-80
2021/04/09 06:38:55;;;;;;;12.43;6.47;;;;;;;21.27;26.36;100615.50;115610;1198;102967;-81
2021/04/09 06:41:22;;;;;;;9.25;6.40;;;;;;;21.15;25.70;100615.48;115567;1200;101330;-81
2021/04/09 06:43:49;;;;;;;11.93;6.67;;;;;;;21.04;25.39;100617.09;115505;1198;103111;-80
2021/04/09 06:46:18;;;;;;;9.47;6.60;;;;;;;20.97;25.54;100623.76;115425;1199;103500;-81
2021/04/09 06:48:45;;;;;;;9.97;6.70;;;;;;;21.16;25.75;100611.87;115601;1198;103629;-82
2021/04/09 06:51:12;;;;;;;9.07;6.07;;;;;;;21.80;25.95;100617.91;115487;1199;103099;-81
2021/04/09 06:53:48;;;;;;;11.50;6.57;;;;;;;22.27;25.64;100623.26;115444;1199;103059;-81
2021/04/09 06:56:16;;;;;;;8.97;6.43;;;;;;;22.27;24.61;100615.29;115459;1198;103003;-81
2021/04/09 06:58:48;;;;;;;9.37;6.23;;;;;;;22.63;25.20;100607.30;115651;1199;103255;-82
2021/04/09 07:01:16;;;;;;;11.83;7.47;;;;;;;23.12;23.40;100607.00;115662;1198;103063;-80
2021/04/09 07:03:44;;;;;;;12.67;6.93;;;;;;;23.36;24.22;100610.41;115476;1199;103479;-82
2021/04/09 07:06:11;;;;;;;12.20;7.17;;;;;;;23.22;23.06;100621.30;115653;1199;104110;-82
2021/04/09 07:08:43;;;;;;;8.73;6.10;;;;;;;22.93;22.50;100604.94;115739;1198;103092;-84
2021/04/09 07:11:11;;;;;;;10.20;6.30;;;;;;;22.70;24.17;100598.72;115361;1199;103064;-83
2021/04/09 07:13:49;;;;;;;7.43;5.93;;;;;;;23.18;22.73;100604.73;115458;1199;103177;-82
2021/04/09 07:16:17;;;;;;;9.60;7.17;;;;;;;23.02;22.63;100598.07;115552;1199;103172;-82
2021/04/09 07:18:48;;;;;;;8.37;6.50;;;;;;;22.51;20.59;100601.09;115436;1198;100567;-82
2021/04/09 07:21:24;;;;;;;9.50;6.00;;;;;;;22.55;22.48;100594.58;115660;1199;102977;-82
2021/04/09 07:24:14;;;;;;;9.37;6.47;;;;;;;22.81;23.09;100592.59;115407;1198;102977;-82
2021/04/09 07:26:43;;;;;;;10.23;6.80;;;;;;;23.44;22.22;100599.98;115618;1200;102814;-83
2021/04/09 07:29:37;;;;;;;11.43;6.80;;;;;;;23.66;22.98;100592.94;115381;1200;103022;-83
2021/04/09 07:32:17;;;;;;;11.77;5.67;;;;;;;23.37;21.26;100588.14;115526;1198;103015;-83
2021/04/09 07:34:52;;;;;;;9.50;6.40;;;;;;;23.43;23.03;100592.96;115675;1198;103043;-82
2021/04/09 07:37:23;;;;;;;8.57;5.03;;;;;;;23.54;19.45;100593.92;115389;1200;103005;-83
2021/04/09 07:39:54;;;;;;;7.30;5.10;;;;;;;22.90;19.78;100600.71;115409;1199;103053;-83
2021/04/09 07:42:33;;;;;;;12.15;5.05;;;;;;;22.37;20.70;100583.53;115669;1199;103150;-83
2021/04/09 07:45:05;;;;;;;7.77;4.90;;;;;;;21.63;19.87;100582.83;115413;1200;103120;-82
2021/04/09 07:47:33;;;;;;;9.17;5.37;;;;;;;21.08;21.23;100575.29;115451;1199;103201;-82
2021/04/09 07:50:06;;;;;;;9.10;5.90;;;;;;;21.17;22.00;100577.27;115492;1199;103069;-81
2021/04/09 07:52:46;;;;;;;8.33;5.83;;;;;;;21.40;21.63;100567.73;115493;1197;102880;-82
2021/04/09 07:55:20;;;;;;;8.03;5.50;;;;;;;21.51;22.02;100575.73;115620;1199;103171;-82
2021/04/09 07:57:49;;;;;;;8.60;4.90;;;;;;;21.43;21.96;100564.84;115589;1198;101925;-81
2021/04/09 08:00:27;;;;;;;7.87;4.87;;;;;;;21.96;21.86;100555.59;115597;1199;101916;-83
2021/04/09 08:02:56;;;;;;;8.23;5.03;;;;;;;22.18;20.80;100560.17;115404;1200;103051;-82
2021/04/09 08:05:26;;;;;;;7.50;4.43;;;;;;;22.15;20.14;100565.72;115454;1198;102989;-82
2021/04/09 08:07:54;;;;;;;7.57;4.47;;;;;;;21.81;20.48;100547.92;115596;1198;103044;-82
2021/04/09 08:10:33;;;;;;;7.70;5.17;;;;;;;21.60;19.58;100555.66;115513;1198;103024;-82
2021/04/09 08:13:02;;;;;;;9.63;4.97;;;;;;;21.39;20.27;100550.95;115495;1198;101934;-82
2021/04/09 08:15:33;;;;;;;7.83;4.70;;;;;;;21.06;20.24;100555.98;115517;1200;102983;-82
2021/04/09 08:18:06;;;;;;;6.90;4.53;;;;;;;21.00;21.31;100554.59;115474;1199;103041;-81
2021/04/09 08:20:38;;;;;;;7.83;4.50;;;;;;;21.50;20.94;100551.97;115534;1198;103504;-82
2021/04/09 08:23:09;;;;;;;8.87;4.43;;;;;;;21.64;21.61;100571.24;115507;1198;103115;-82
2021/04/09 08:25:37;;;;;;;6.83;4.40;;;;;;;21.38;19.13;100537.81;115702;1199;103001;-81
2021/04/09 08:28:07;;;;;;;5.73;4.00;;;;;;;20.56;19.95;100554.20;115583;1198;103111;-82
2021/04/09 08:30:38;;;;;;;7.33;4.27;;;;;;;19.93;20.09;100537.25;115544;1198;103054;-82
2021/04/09 08:33:07;;;;;;;7.63;4.40;;;;;;;19.97;20.15;100530.79;115453;1198;103155;-81
2021/04/09 08:35:35;;;;;;;6.43;3.90;;;;;;;19.99;21.38;100538.63;115551;1198;103095;-81
2021/04/09 08:38:05;;;;;;;8.60;4.50;;;;;;;19.76;20.40;100538.36;115448;1199;103153;-81
2021/04/09 08:40:32;;;;;;;8.13;4.70;;;;;;;19.61;20.24;100520.83;115682;1197;103179;-81
2021/04/09 08:43:01;;;;;;;9.00;5.07;;;;;;;19.51;20.88;100544.34;115567;1198;101804;-80
2021/04/09 08:45:35;;;;;;;8.03;4.10;;;;;;;18.95;20.71;100513.58;115473;1199;102985;-81
2021/04/09 08:48:04;;;;;;;7.83;4.10;;;;;;;18.03;20.79;100527.03;115383;1199;103027;-81
2021/04/09 08:50:31;;;;;;;6.23;4.23;;;;;;;17.41;21.47;100509.48;115375;1200;103034;-82
2021/04/09 08:52:59;;;;;;;9.57;4.17;;;;;;;17.11;21.20;100562.13;115453;1198;103140;-81
2021/04/09 08:55:40;;;;;;;8.70;4.20;;;;;;;16.83;22.35;100497.73;115400;1198;103201;-81
2021/04/09 08:58:18;;;;;;;7.13;4.00;;;;;;;17.34;23.05;100514.27;115517;1199;102985;-83
2021/04/09 09:00:51;;;;;;;6.80;4.33;;;;;;;17.32;22.26;100508.23;115535;1199;103102;-81
2021/04/09 09:03:28;;;;;;;5.63;4.00;;;;;;;17.03;22.98;100503.70;115679;1199;103022;-81
2021/04/09 09:06:05;;;;;;;8.77;5.03;;;;;;;16.98;23.03;100556.66;115530;1198;103078;-80
2021/04/09 09:08:42;;;;;;;7.33;4.73;;;;;;;15.86;22.63;100518.59;115510;1200;103088;-81
2021/04/09 09:11:11;;;;;;;9.60;4.60;;;;;;;15.09;23.65;100503.84;115544;1198;103021;-81
2021/04/09 09:13:44;;;;;;;7.70;4.07;;;;;;;14.86;24.86;100496.16;115377;1198;102998;-81
2021/04/09 09:16:12;;;;;;;9.10;4.17;;;;;;;15.36;24.85;100496.42;115446;1198;103031;-82
2021/04/09 09:18:42;;;;;;;6.47;4.20;;;;;;;15.02;23.02;100489.28;115619;1199;102804;-81
2021/04/09 09:21:15;;;;;;;8.00;4.95;;;;;;;14.49;24.07;100503.06;115486;1199;103089;-81
2021/04/09 09:23:49;;;;;;;7.93;4.50;;;;;;;14.39;24.56;100498.27;115446;1199;103075;-82
2021/04/09 09:26:23;;;;;;;11.53;4.80;;;;;;;13.92;25.58;100503.77;115673;1199;103063;-81
2021/04/09 09:29:07;;;;;;;8.00;5.17;;;;;;;13.38;25.81;100491.99;115318;1199;103041;-83
2021/04/09 09:31:37;;;;;;;10.73;5.57;;;;;;;13.08;26.82;100494.00;115390;1199;103178;-81
2021/04/09 09:34:17;;;;;;;10.10;6.00;;;;;;;13.52;26.94;100486.21;115396;1199;103429;-82
2021/04/09 09:37:14;;;;;;;9.50;5.97;;;;;;;13.80;27.07;100481.52;115628;1199;102993;-82
2021/04/09 09:40:02;;;;;;;9.37;6.10;;;;;;;13.98;26.73;100477.28;115432;1200;103095;-82
2021/04/09 09:42:30;;;;;;;10.33;6.37;;;;;;;13.57;26.77;100473.77;115400;1199;103137;-81
2021/04/09 09:45:09;;;;;;;12.43;7.57;;;;;;;12.70;27.66;100477.98;115382;1200;103101;-81
2021/04/09 09:47:41;;;;;;;9.93;7.17;;;;;;;12.75;28.57;100466.48;115446;1200;103243;-81
2021/04/09 09:50:11;;;;;;;11.70;6.93;;;;;;;12.96;27.99;100465.70;115327;1200;103037;-81
2021/04/09 09:52:44;;;;;;;9.77;6.20;;;;;;;12.82;27.80;100488.92;115403;1199;101370;-81
2021/04/09 09:55:23;;;;;;;9.50;6.45;;;;;;;12.73;28.44;100465.69;115368;1200;103110;-81
2021/04/09 09:58:03;;;;;;;12.63;6.13;;;;;;;12.81;28.66;100458.42;115633;1200;103015;-81
2021/04/09 10:00:55;;;;;;;12.33;6.17;;;;;;;13.17;27.67;100472.71;115400;1198;103807;-80
2021/04/09 10:03:33;;;;;;;11.07;6.00;;;;;;;13.17;27.86;100451.76;115398;1197;102979;-81
2021/04/09 10:06:12;;;;;;;11.93;5.27;;;;;;;13.16;26.78;100447.44;115440;1198;103057;-81
2021/04/09 10:08:58;;;;;;;11.73;5.75;;;;;;;13.49;27.89;100441.80;115459;1199;103498;-80
2021/04/09 10:11:26;;;;;;;12.30;6.40;;;;;;;13.51;26.53;100450.44;115451;1198;103239;-80
2021/04/09 10:13:55;;;;;;;8.80;5.67;;;;;;;12.98;27.03;100440.30;115373;1197;103416;-81
2021/04/09 10:16:26;;;;;;;10.40;5.33;;;;;;;12.83;27.53;100438.27;115489;1197;103211;-81
2021/04/09 10:19:07;;;;;;;10.33;5.50;;;;;;;13.21;28.20;100426.33;115473;1199;103037;-81
2021/04/09 10:21:40;;;;;;;9.53;5.67;;;;;;;13.60;27.29;100424.69;115430;1198;103489;-81
2021/04/09 10:24:27;;;;;;;8.40;5.30;;;;;;;13.79;26.53;100416.91;115383;1200;103003;-82
2021/04/09 10:27:02;;;;;;;9.10;5.20;;;;;;;13.68;26.09;100421.77;115458;1200;103048;-82
2021/04/09 10:32:51;;;;;;;10.13;5.40;;;;;;;13.43;25.95;100403.58;115592;1198;103062;-82
2021/04/09 10:35:35;;;;;;;7.60;5.30;;;;;;;13.13;25.90;100396.95;115626;1199;103159;-83
2021/04/09 10:38:28;;;;;;;7.90;4.70;;;;;;;13.26;26.74;100404.27;115588;1199;103175;-83
2021/04/09 10:41:01;;;;;;;7.67;5.17;;;;;;;13.45;27.02;100400.89;115527;1199;103111;-82
2021/04/09 10:43:35;;;;;;;8.93;5.97;;;;;;;13.39;26.99;100399.38;115397;1198;102986;-82
2021/04/09 10:46:16;;;;;;;10.80;5.75;;;;;;;13.22;27.16;100397.45;115499;1199;102035;-82
2021/04/09 10:48:43;;;;;;;10.33;5.40;;;;;;;13.08;27.90;100391.03;115466;1199;103191;-82
2021/04/09 10:51:10;;;;;;;9.13;5.50;;;;;;;13.24;27.90;100387.77;115575;1199;103088;-82
2021/04/09 10:53:39;;;;;;;9.25;5.30;;;;;;;13.08;27.56;100376.17;115675;1197;103191;-82
2021/04/09 10:56:10;;;;;;;8.27;5.30;;;;;;;13.02;27.46;100384.28;115395;1198;103076;-82
2021/04/09 10:58:43;;;;;;;8.57;5.30;;;;;;;12.83;27.40;100372.84;115409;1197;103085;-82
2021/04/09 11:01:10;;;;;;;10.90;5.67;;;;;;;12.79;27.50;100386.97;115377;1200;103030;-82
2021/04/09 11:04:00;;;;;;;11.23;5.80;;;;;;;12.62;26.92;100391.08;115661;1199;101389;-82
2021/04/09 11:06:28;;;;;;;9.63;6.07;;;;;;;12.35;27.45;100413.88;115651;1198;103081;-82
2021/04/09 11:09:04;;;;;;;10.23;5.63;;;;;;;12.05;27.88;100375.80;115322;1199;103129;-82
2021/04/09 11:11:39;;;;;;;9.00;6.08;;;;;;;11.79;28.51;100389.77;115464;1199;103092;-82
2021/04/09 11:14:09;;;;;;;8.73;4.90;;;;;;;11.66;29.05;100364.92;115298;1199;103127;-81
2021/04/09 11:16:57;;;;;;;7.67;5.27;;;;;;;11.89;29.51;100356.34;115442;1199;103281;-81
2021/04/09 11:19:38;;;;;;;11.20;6.20;;;;;;;12.03;29.29;100354.94;115468;1199;103121;-81
2021/04/09 11:22:07;;;;;;;7.73;5.73;;;;;;;11.97;28.22;100378.66;115395;1198;103187;-81
2021/04/09 11:24:38;;;;;;;9.67;6.00;;;;;;;11.97;28.97;100352.52;115347;1199;103102;-81